Time;durP1;ratioP1;P1;durP2;ratioP2;P2;SDS_P1;SDS_P2;PMS_P1;PMS_P2;Temp;Humidity;BMP_temperature;BMP_pressure;BME280_temperature;BME280_humidity;BME280_pressure;Samples;Min_cycle;Max_cycle;Signal;HPM_P1;HPM_P2
2020/12/24 00:02:21;;;;;;;0.30;0.30;;;9.10;94.40;;;;;;5077784;28;20135;-77
2020/12/24 00:04:46;;;;;;;0.40;0.20;;;9.10;94.40;;;;;;5094967;28;20032;-76
2020/12/24 00:07:12;;;;;;;0.30;0.20;;;9.10;94.40;;;;;;5113250;28;20507;-76
2020/12/24 00:09:38;;;;;;;0.38;0.30;;;9.20;94.50;;;;;;5094456;28;20047;-76
2020/12/24 00:12:04;;;;;;;0.22;0.22;;;9.10;94.50;;;;;;5112625;28;20039;-76
2020/12/24 00:14:30;;;;;;;0.38;0.20;;;9.20;94.50;;;;;;5112561;28;20070;-76
2020/12/24 00:16:56;;;;;;;0.20;0.20;;;9.10;94.50;;;;;;5112723;28;20042;-76
2020/12/24 00:19:22;;;;;;;0.20;0.20;;;9.10;94.50;;;;;;5094451;28;20077;-75
2020/12/24 00:21:47;;;;;;;0.10;0.10;;;9.10;94.50;;;;;;5112833;28;20452;-76
2020/12/24 00:24:14;;;;;;;0.50;0.22;;;9.10;94.50;;;;;;5112831;28;20047;-76
2020/12/24 00:26:40;;;;;;;0.30;0.30;;;9.10;94.50;;;;;;5112744;28;20134;-76
2020/12/24 00:29:07;;;;;;;0.20;0.20;;;9.10;94.50;;;;;;5094143;28;20123;-77
2020/12/24 00:31:34;;;;;;;0.20;0.20;;;9.00;94.50;;;;;;5077295;28;20035;-76
2020/12/24 00:34:00;;;;;;;0.22;0.22;;;9.10;94.50;;;;;;5094629;28;20035;-77
2020/12/24 00:36:27;;;;;;;0.30;0.20;;;9.00;94.50;;;;;;5094273;28;20067;-77
2020/12/24 00:38:52;;;;;;;0.30;0.20;;;9.00;94.50;;;;;;5112750;28;20062;-77
2020/12/24 00:41:19;;;;;;;0.22;0.22;;;9.00;94.50;;;;;;5112785;28;20466;-76
2020/12/24 00:43:45;;;;;;;0.20;0.20;;;9.00;94.50;;;;;;5112673;28;20047;-77
2020/12/24 00:46:10;;;;;;;0.50;0.20;;;8.90;94.50;;;;;;5112829;28;20370;-77
2020/12/24 00:48:36;;;;;;;0.40;0.40;;;8.90;94.50;;;;;;5113918;28;20481;-76
2020/12/24 00:51:02;;;;;;;0.60;0.22;;;8.90;94.50;;;;;;5116568;28;20066;-75
2020/12/24 00:53:28;;;;;;;0.38;0.38;;;9.00;94.50;;;;;;5116349;28;20118;-76
2020/12/24 00:55:53;;;;;;;2.30;0.55;;;8.90;94.50;;;;;;5116425;28;20126;-75
2020/12/24 00:58:19;;;;;;;0.88;0.40;;;9.00;94.40;;;;;;5115956;28;20031;-75
2020/12/24 01:00:45;;;;;;;1.10;0.40;;;9.00;94.40;;;;;;5116453;28;20036;-77
2020/12/24 01:03:10;;;;;;;1.55;0.50;;;9.10;94.30;;;;;;5116600;28;20416;-76
2020/12/24 01:05:36;;;;;;;1.55;0.60;;;9.10;94.30;;;;;;5097694;28;20039;-76
2020/12/24 01:08:02;;;;;;;2.08;0.57;;;9.10;94.30;;;;;;5115676;28;20075;-75
2020/12/24 01:10:27;;;;;;;2.30;0.52;;;9.10;94.20;;;;;;5116030;28;20505;-75
2020/12/24 01:12:53;;;;;;;2.42;0.60;;;9.00;94.10;;;;;;5115707;28;20075;-75
2020/12/24 01:15:19;;;;;;;1.80;0.60;;;9.10;94.10;;;;;;5115449;28;20071;-75
2020/12/24 01:17:45;;;;;;;2.58;0.52;;;9.10;94.10;;;;;;5097842;28;20044;-75
2020/12/24 01:20:10;;;;;;;1.77;0.50;;;9.10;94.00;;;;;;5115650;28;20124;-76
2020/12/24 01:22:39;;;;;;;2.17;0.65;;;9.00;94.00;;;;;;5115212;28;20461;-75
2020/12/24 01:25:05;;;;;;;2.20;0.60;;;9.00;94.00;;;;;;5079926;28;20500;-75
2020/12/24 01:27:31;;;;;;;1.52;0.40;;;9.00;94.00;;;;;;5097489;28;20405;-75
2020/12/24 01:29:56;;;;;;;1.25;0.60;;;9.00;94.00;;;;;;5115162;28;20044;-76
2020/12/24 01:32:22;;;;;;;1.60;0.50;;;9.00;94.00;;;;;;5115105;28;20038;-75
2020/12/24 01:34:48;;;;;;;1.15;0.50;;;8.90;94.00;;;;;;5115605;28;20481;-76
2020/12/24 01:37:14;;;;;;;1.20;0.47;;;8.90;93.90;;;;;;5115195;28;20039;-75
2020/12/24 01:39:39;;;;;;;1.70;0.40;;;9.00;93.90;;;;;;5115624;28;20023;-77
2020/12/24 01:42:05;;;;;;;2.47;0.70;;;8.90;93.90;;;;;;5115512;28;20035;-77
2020/12/24 01:44:31;;;;;;;0.93;0.40;;;8.90;93.90;;;;;;5115111;28;20482;-76
2020/12/24 01:46:56;;;;;;;1.25;0.57;;;9.00;93.90;;;;;;5114943;28;20038;-76
2020/12/24 01:49:22;;;;;;;1.35;0.43;;;8.80;93.90;;;;;;5115424;28;20032;-77
2020/12/24 01:51:52;;;;;;;0.40;0.20;;;8.80;93.90;;;;;;5115019;28;20123;-76
2020/12/24 01:54:19;;;;;;;0.38;0.38;;;8.70;93.90;;;;;;5115442;28;20398;-76
2020/12/24 01:56:46;;;;;;;0.88;0.30;;;8.70;93.90;;;;;;5097294;28;20046;-76
2020/12/24 01:59:16;;;;;;;0.80;0.30;;;8.70;93.90;;;;;;5114637;28;20063;-76
2020/12/24 02:01:45;;;;;;;0.68;0.30;;;8.70;93.90;;;;;;5096785;28;20035;-76
2020/12/24 02:04:11;;;;;;;2.92;0.43;;;8.60;93.90;;;;;;5115208;28;20051;-76
2020/12/24 02:06:39;;;;;;;0.73;0.30;;;8.60;93.90;;;;;;5114810;28;20456;-76
2020/12/24 02:09:05;;;;;;;0.60;0.30;;;8.60;93.90;;;;;;5114962;28;20075;-76
2020/12/24 02:11:31;;;;;;;1.02;0.30;;;8.60;93.90;;;;;;5096577;28;20075;-75
2020/12/24 02:13:57;;;;;;;0.60;0.40;;;8.60;93.90;;;;;;5114808;28;20039;-75
2020/12/24 02:16:23;;;;;;;0.65;0.30;;;8.50;93.90;;;;;;5114936;28;20543;-75
2020/12/24 02:18:49;;;;;;;0.90;0.40;;;8.60;93.90;;;;;;5096392;28;20080;-76
2020/12/24 02:21:14;;;;;;;1.00;0.30;;;8.60;93.90;;;;;;5114990;28;20059;-76
2020/12/24 02:23:40;;;;;;;0.47;0.25;;;8.60;93.90;;;;;;5114715;28;20504;-75
2020/12/24 02:26:06;;;;;;;0.60;0.20;;;8.50;93.80;;;;;;5096818;28;20500;-76
2020/12/24 02:28:31;;;;;;;0.45;0.30;;;8.60;93.80;;;;;;5114671;28;20043;-76
2020/12/24 02:30:57;;;;;;;0.47;0.17;;;8.60;93.80;;;;;;5114724;28;20089;-76
2020/12/24 02:33:23;;;;;;;1.98;0.57;;;8.50;93.80;;;;;;5096610;28;20130;-76
2020/12/24 02:35:48;;;;;;;2.75;0.40;;;8.50;93.80;;;;;;5096530;28;20031;-76
2020/12/24 02:38:14;;;;;;;1.30;0.50;;;8.60;93.80;;;;;;5096686;28;20469;-76
2020/12/24 02:40:40;;;;;;;1.27;0.52;;;8.60;93.80;;;;;;5096538;28;20424;-76
2020/12/24 02:43:06;;;;;;;2.28;0.38;;;8.60;93.70;;;;;;5114761;28;20093;-76
2020/12/24 02:45:32;;;;;;;1.75;0.40;;;8.60;93.70;;;;;;5114586;28;20043;-76
2020/12/24 02:47:57;;;;;;;1.48;0.50;;;8.60;93.70;;;;;;5114394;28;20044;-76
2020/12/24 02:50:23;;;;;;;4.50;0.90;;;8.70;93.70;;;;;;5114187;28;20039;-76
2020/12/24 02:52:49;;;;;;;1.15;0.50;;;8.70;93.70;;;;;;5096118;28;20473;-76
2020/12/24 02:55:15;;;;;;;1.27;0.43;;;8.70;93.60;;;;;;5114001;28;20122;-76
2020/12/24 02:57:40;;;;;;;1.55;0.60;;;8.70;93.50;;;;;;5114110;28;20031;-76
2020/12/24 03:00:08;;;;;;;2.20;0.75;;;8.70;93.50;;;;;;5113909;28;20046;-76
2020/12/24 03:02:34;;;;;;;1.80;0.47;;;8.70;93.50;;;;;;5114067;28;20046;-76
2020/12/24 03:04:59;;;;;;;0.80;0.40;;;8.70;93.50;;;;;;5095707;28;20393;-76
2020/12/24 03:07:25;;;;;;;1.75;0.60;;;8.70;93.50;;;;;;5113831;28;20137;-76
2020/12/24 03:09:51;;;;;;;1.63;0.40;;;8.70;93.50;;;;;;5113642;28;20042;-76
2020/12/24 03:12:17;;;;;;;0.93;0.52;;;8.70;93.50;;;;;;5094675;28;20134;-76
2020/12/24 03:14:42;;;;;;;1.42;0.40;;;8.70;93.50;;;;;;5113611;28;20042;-75
2020/12/24 03:17:08;;;;;;;1.80;0.47;;;8.70;93.50;;;;;;5114275;28;20474;-75
2020/12/24 03:19:34;;;;;;;1.05;0.63;;;8.70;93.50;;;;;;5113875;28;20054;-76
2020/12/24 03:21:59;;;;;;;0.95;0.50;;;8.70;93.50;;;;;;5113930;28;20031;-76
2020/12/24 03:24:25;;;;;;;1.98;0.38;;;8.70;93.50;;;;;;5095928;28;20078;-76
2020/12/24 03:26:50;;;;;;;2.40;0.60;;;8.70;93.50;;;;;;5113704;28;20481;-75
2020/12/24 03:29:16;;;;;;;2.05;0.63;;;8.70;93.50;;;;;;5113504;28;20100;-76
2020/12/24 03:31:42;;;;;;;0.85;0.45;;;8.70;93.50;;;;;;5095141;28;20039;-75
2020/12/24 03:34:07;;;;;;;1.95;0.40;;;8.60;93.50;;;;;;5113180;28;20093;-76
2020/12/24 03:36:33;;;;;;;1.13;0.45;;;8.60;93.50;;;;;;5113499;28;20043;-75
2020/12/24 03:38:59;;;;;;;2.33;0.40;;;8.60;93.50;;;;;;5113329;28;20393;-75
2020/12/24 03:41:24;;;;;;;3.33;0.60;;;8.60;93.50;;;;;;5113073;28;20105;-75
2020/12/24 03:43:50;;;;;;;1.23;0.52;;;8.60;93.50;;;;;;5094854;28;20052;-75
2020/12/24 03:46:16;;;;;;;1.05;0.55;;;8.60;93.50;;;;;;5094784;28;20101;-75
2020/12/24 03:48:41;;;;;;;1.65;0.60;;;8.50;93.40;;;;;;5112908;28;20039;-75
2020/12/24 03:51:07;;;;;;;2.20;0.40;;;8.60;93.50;;;;;;5113266;28;20036;-75
2020/12/24 03:53:33;;;;;;;0.88;0.40;;;8.60;93.50;;;;;;5078019;28;20036;-76
2020/12/24 03:55:58;;;;;;;0.57;0.32;;;8.60;93.50;;;;;;5113098;28;20039;-75
2020/12/24 03:58:24;;;;;;;1.10;0.40;;;8.60;93.50;;;;;;5113463;28;20038;-75
2020/12/24 04:00:50;;;;;;;2.10;0.50;;;8.60;93.50;;;;;;5094768;28;20059;-75
2020/12/24 04:03:15;;;;;;;1.77;0.57;;;8.60;93.40;;;;;;5094594;28;20044;-75
2020/12/24 04:05:41;;;;;;;1.80;0.50;;;8.60;93.40;;;;;;5110707;28;20036;-75
2020/12/24 04:08:07;;;;;;;3.38;0.47;;;8.60;93.40;;;;;;5094688;28;20460;-75
2020/12/24 04:10:33;;;;;;;3.30;0.60;;;8.60;93.40;;;;;;5112589;28;20046;-75
2020/12/24 04:12:59;;;;;;;1.98;0.68;;;8.60;93.30;;;;;;5112581;28;20138;-75
2020/12/24 04:15:25;;;;;;;0.55;0.30;;;8.60;93.30;;;;;;5112523;28;20028;-75
2020/12/24 04:17:51;;;;;;;1.70;0.43;;;8.60;93.30;;;;;;5113117;28;20040;-76
2020/12/24 04:20:16;;;;;;;2.30;0.57;;;8.60;93.30;;;;;;5113238;28;20109;-76
2020/12/24 04:22:42;;;;;;;1.75;0.50;;;8.60;93.30;;;;;;5094326;28;20047;-75
2020/12/24 04:25:08;;;;;;;1.48;0.40;;;8.60;93.40;;;;;;5113140;28;20043;-75
2020/12/24 04:27:33;;;;;;;0.43;0.30;;;8.50;93.30;;;;;;5112636;28;20096;-75
2020/12/24 04:29:59;;;;;;;2.17;0.45;;;8.50;93.70;;;;;;5112670;28;20473;-76
2020/12/24 04:32:25;;;;;;;2.13;0.50;;;8.50;93.40;;;;;;5112747;28;20039;-75
2020/12/24 04:34:51;;;;;;;0.52;0.40;;;8.60;93.40;;;;;;5112882;28;20431;-76
2020/12/24 04:37:17;;;;;;;2.13;0.68;;;8.50;93.40;;;;;;5094014;28;20039;-76
2020/12/24 04:39:44;;;;;;;1.45;0.77;;;8.50;93.40;;;;;;5112287;28;20046;-75
2020/12/24 04:42:11;;;;;;;0.65;0.40;;;8.50;93.40;;;;;;5112565;28;20054;-76
2020/12/24 04:44:37;;;;;;;0.77;0.30;;;8.50;93.40;;;;;;5112774;28;20090;-75
2020/12/24 04:47:03;;;;;;;1.40;0.50;;;8.50;93.50;;;;;;5094068;28;20473;-75
2020/12/24 04:49:31;;;;;;;1.20;0.30;;;8.50;93.40;;;;;;5112691;28;20046;-76
2020/12/24 04:51:56;;;;;;;0.88;0.30;;;8.50;93.40;;;;;;5112674;28;20094;-76
2020/12/24 04:54:22;;;;;;;2.85;0.50;;;8.50;93.40;;;;;;5112711;28;20047;-76
2020/12/24 04:56:48;;;;;;;2.10;0.40;;;8.50;93.40;;;;;;5112616;28;20039;-76
2020/12/24 04:59:18;;;;;;;0.77;0.43;;;8.50;93.50;;;;;;5093937;28;20044;-76
2020/12/24 05:01:43;;;;;;;0.63;0.25;;;8.50;93.50;;;;;;5112247;28;20435;-77
2020/12/24 05:04:09;;;;;;;1.27;0.40;;;8.50;93.50;;;;;;5094481;28;20119;-77
2020/12/24 05:06:35;;;;;;;0.20;0.20;;;8.40;93.30;;;;;;5094782;28;20158;-78
2020/12/24 05:09:00;;;;;;;0.63;0.22;;;8.00;93.30;;;;;;5115295;28;20039;-79
2020/12/24 05:11:30;;;;;;;0.47;0.20;;;7.80;93.50;;;;;;5096996;28;20044;-78
2020/12/24 05:14:15;;;;;;;0.28;0.28;;;7.40;93.70;;;;;;5095846;28;20039;-79
2020/12/24 05:16:41;;;;;;;0.15;0.13;;;7.20;93.80;;;;;;5103788;28;20036;-78
2020/12/24 05:19:11;;;;;;;0.13;0.13;;;6.80;93.90;;;;;;5121962;28;20031;-79
2020/12/24 05:21:39;;;;;;;0.03;0.03;;;6.60;94.20;;;;;;5116739;28;20481;-78
2020/12/24 05:24:21;;;;;;;0.00;0.00;;;6.40;94.30;;;;;;5082392;28;20047;-78
2020/12/24 05:26:47;;;;;;;0.20;0.17;;;6.30;94.50;;;;;;5099577;28;20127;-78
2020/12/24 05:29:13;;;;;;;0.17;0.15;;;6.20;94.50;;;;;;5116012;28;20071;-78
2020/12/24 05:31:38;;;;;;;0.10;0.10;;;6.00;94.40;;;;;;5096449;28;20051;-77
2020/12/24 05:34:04;;;;;;;0.10;0.10;;;6.00;94.50;;;;;;5116024;28;20089;-78
2020/12/24 05:36:30;;;;;;;0.15;0.10;;;5.90;94.50;;;;;;5101129;28;20039;-78
2020/12/24 05:38:56;;;;;;;0.10;0.10;;;5.80;94.50;;;;;;5101895;28;20061;-77
2020/12/24 05:41:30;;;;;;;0.10;0.10;;;5.70;94.50;;;;;;5102102;28;20032;-77
2020/12/24 05:44:00;;;;;;;0.05;0.05;;;5.70;94.60;;;;;;5099824;28;20396;-78
2020/12/24 05:46:29;;;;;;;0.30;0.10;;;5.50;94.50;;;;;;5120246;28;20512;-77
2020/12/24 05:48:55;;;;;;;0.10;0.10;;;5.50;94.50;;;;;;5100642;28;20094;-77
2020/12/24 05:51:21;;;;;;;0.30;0.10;;;5.40;94.50;;;;;;5118825;28;20070;-78
2020/12/24 05:53:48;;;;;;;0.10;0.10;;;5.40;94.50;;;;;;5098303;28;20444;-78
2020/12/24 05:56:25;;;;;;;0.08;0.08;;;5.30;94.50;;;;;;5099055;28;20508;-78
2020/12/24 05:58:51;;;;;;;0.10;0.10;;;5.20;94.50;;;;;;5099177;28;20039;-78
2020/12/24 06:01:18;;;;;;;0.00;0.00;;;5.20;94.40;;;;;;5083490;28;20397;-77
2020/12/24 06:04:04;;;;;;;0.30;0.10;;;5.10;94.40;;;;;;5118384;28;20035;-78
2020/12/24 06:06:44;;;;;;;0.10;0.10;;;5.10;94.40;;;;;;5115695;28;20566;-78
2020/12/24 06:09:13;;;;;;;1.48;0.20;;;5.00;94.40;;;;;;5116976;28;20039;-78
2020/12/24 06:11:46;;;;;;;0.10;0.10;;;5.10;94.40;;;;;;5117637;28;20122;-78
2020/12/24 06:14:29;;;;;;;0.00;0.00;;;4.90;94.40;;;;;;5098494;28;20085;-78
2020/12/24 06:17:02;;;;;;;0.10;0.10;;;5.00;94.40;;;;;;5117001;28;20032;-78
2020/12/24 06:19:28;;;;;;;0.15;0.13;;;4.90;94.40;;;;;;5117216;28;20043;-78
2020/12/24 06:21:54;;;;;;;1.35;0.10;;;4.80;94.30;;;;;;5099112;28;20043;-78
2020/12/24 06:24:20;;;;;;;0.10;0.10;;;4.80;94.30;;;;;;5116931;28;20039;-78
2020/12/24 06:26:55;;;;;;;0.10;0.10;;;4.90;94.40;;;;;;5116260;28;20070;-78
2020/12/24 06:29:22;;;;;;;0.10;0.10;;;4.80;94.30;;;;;;5115896;28;20047;-78
2020/12/24 06:31:51;;;;;;;0.60;0.13;;;4.70;94.30;;;;;;5080630;28;20046;-77
2020/12/24 06:34:22;;;;;;;1.13;0.13;;;4.70;94.30;;;;;;5097338;28;20487;-77
2020/12/24 06:36:47;;;;;;;0.43;0.20;;;4.70;94.30;;;;;;5097226;28;20489;-77
2020/12/24 06:39:13;;;;;;;1.38;0.10;;;4.70;94.30;;;;;;5097019;28;20040;-77
2020/12/24 06:41:41;;;;;;;0.20;0.20;;;4.70;94.30;;;;;;5096992;28;20039;-77
2020/12/24 06:44:09;;;;;;;0.10;0.10;;;4.70;94.30;;;;;;5115354;28;20051;-77
2020/12/24 06:46:59;;;;;;;0.10;0.10;;;4.70;94.30;;;;;;5113285;28;20035;-77
2020/12/24 06:49:30;;;;;;;0.10;0.10;;;4.70;94.30;;;;;;5114816;28;20065;-77
2020/12/24 06:51:56;;;;;;;0.10;0.10;;;4.70;94.20;;;;;;5096954;28;20036;-77
2020/12/24 06:54:26;;;;;;;0.10;0.10;;;4.70;94.20;;;;;;5079178;28;20073;-77
2020/12/24 06:57:22;;;;;;;0.22;0.13;;;4.70;94.20;;;;;;5114894;28;20042;-77
2020/12/24 07:00:08;;;;;;;0.10;0.10;;;4.70;94.20;;;;;;5115259;28;20085;-77
2020/12/24 07:02:34;;;;;;;0.03;0.03;;;4.70;94.20;;;;;;5114386;28;20096;-77
2020/12/24 07:05:00;;;;;;;0.10;0.10;;;4.80;94.20;;;;;;5096426;28;20044;-77
2020/12/24 07:07:44;;;;;;;0.20;0.20;;;4.70;94.20;;;;;;5096395;28;20048;-77
2020/12/24 07:10:45;;;;;;;0.10;0.10;;;4.70;94.10;;;;;;5114160;28;20109;-77
2020/12/24 07:13:32;;;;;;;0.38;0.10;;;4.80;94.10;;;;;;5115065;28;20058;-77
2020/12/24 07:15:58;;;;;;;0.17;0.10;;;4.80;94.10;;;;;;5097030;28;20066;-76
2020/12/24 07:18:24;;;;;;;0.00;0.00;;;4.80;94.10;;;;;;5079695;28;20039;-76
2020/12/24 07:20:52;;;;;;;0.10;0.10;;;4.80;94.10;;;;;;5096172;28;20085;-76
2020/12/24 07:23:29;;;;;;;0.00;0.00;;;4.80;94.10;;;;;;5114881;28;20161;-77
2020/12/24 07:25:55;;;;;;;0.10;0.10;;;4.80;94.10;;;;;;5114649;28;20042;-77
2020/12/24 07:28:21;;;;;;;0.10;0.10;;;4.90;94.10;;;;;;5096928;28;20039;-76
2020/12/24 07:30:59;;;;;;;0.08;0.08;;;4.90;94.10;;;;;;5114666;28;20050;-77
2020/12/24 07:33:26;;;;;;;0.10;0.10;;;4.90;94.10;;;;;;5114773;28;20040;-76
2020/12/24 07:35:52;;;;;;;0.40;0.10;;;5.00;94.10;;;;;;5096979;28;20040;-76
2020/12/24 07:38:20;;;;;;;0.10;0.10;;;5.00;94.10;;;;;;5114365;28;20097;-76
2020/12/24 07:40:46;;;;;;;0.15;0.15;;;5.00;94.10;;;;;;5096118;28;20035;-76
2020/12/24 07:43:12;;;;;;;0.75;0.10;;;5.00;94.10;;;;;;5096258;28;20466;-76
2020/12/24 07:45:39;;;;;;;0.10;0.10;;;4.90;94.10;;;;;;5114058;28;20420;-76
2020/12/24 07:48:13;;;;;;;0.00;0.00;;;5.00;94.10;;;;;;5095576;28;20044;-76
2020/12/24 07:50:39;;;;;;;0.10;0.10;;;4.90;94.00;;;;;;5113824;28;20039;-76
2020/12/24 07:53:08;;;;;;;0.00;0.00;;;5.00;94.10;;;;;;5113972;28;20126;-76
2020/12/24 07:55:33;;;;;;;0.10;0.10;;;5.10;94.10;;;;;;5114270;28;20101;-76
2020/12/24 07:58:09;;;;;;;0.13;0.10;;;5.00;94.00;;;;;;5095374;28;20048;-76
2020/12/24 08:00:43;;;;;;;0.10;0.10;;;5.00;94.00;;;;;;5114319;28;20036;-76
2020/12/24 08:03:11;;;;;;;0.10;0.10;;;5.00;94.00;;;;;;5060892;28;20040;-76
2020/12/24 08:05:37;;;;;;;0.10;0.10;;;5.00;94.00;;;;;;5113919;28;20122;-76
2020/12/24 08:08:03;;;;;;;0.10;0.10;;;5.10;94.10;;;;;;5114160;28;20116;-76
2020/12/24 08:10:29;;;;;;;0.10;0.10;;;5.00;94.00;;;;;;5079498;28;20135;-76
2020/12/24 08:13:02;;;;;;;0.10;0.10;;;5.00;94.00;;;;;;5114029;28;20048;-77
2020/12/24 08:15:32;;;;;;;0.35;0.20;;;5.00;94.00;;;;;;5114045;28;20501;-76
2020/12/24 08:18:01;;;;;;;0.38;0.30;;;5.00;94.00;;;;;;5114160;28;20097;-76
2020/12/24 08:20:35;;;;;;;0.30;0.30;;;5.00;93.90;;;;;;5095845;28;20059;-76
2020/12/24 08:23:10;;;;;;;0.30;0.25;;;5.00;94.00;;;;;;5095521;28;20401;-77
2020/12/24 08:25:36;;;;;;;0.20;0.20;;;5.00;93.90;;;;;;5114150;28;20046;-77
2020/12/24 08:28:03;;;;;;;0.10;0.10;;;5.00;94.00;;;;;;5095074;28;20043;-76
2020/12/24 08:30:29;;;;;;;0.20;0.20;;;5.00;94.00;;;;;;5095832;28;20134;-76
2020/12/24 08:32:55;;;;;;;0.43;0.20;;;5.00;93.90;;;;;;5095761;28;20457;-77
2020/12/24 08:35:21;;;;;;;0.20;0.15;;;5.00;93.90;;;;;;5114188;28;20397;-77
2020/12/24 08:37:47;;;;;;;0.22;0.10;;;5.10;93.90;;;;;;5114023;28;20043;-76
2020/12/24 08:40:22;;;;;;;0.20;0.20;;;5.10;93.90;;;;;;5096188;28;20039;-77
2020/12/24 08:42:51;;;;;;;0.70;0.20;;;5.10;93.90;;;;;;5095668;28;20040;-76
2020/12/24 08:45:17;;;;;;;0.20;0.20;;;5.10;93.90;;;;;;5095572;28;20130;-76
2020/12/24 08:47:42;;;;;;;0.80;0.40;;;5.10;93.80;;;;;;5113436;28;20098;-76
2020/12/24 08:50:08;;;;;;;0.20;0.20;;;5.10;93.80;;;;;;5113252;28;20044;-76
2020/12/24 08:52:37;;;;;;;0.47;0.30;;;5.20;93.80;;;;;;5112742;28;20092;-76
2020/12/24 08:55:07;;;;;;;0.30;0.30;;;5.10;93.80;;;;;;5112579;28;20032;-76
2020/12/24 08:57:35;;;;;;;0.55;0.30;;;5.20;93.80;;;;;;5112826;28;20035;-76
2020/12/24 09:00:04;;;;;;;0.73;0.40;;;5.20;93.80;;;;;;5112914;28;20055;-76
2020/12/24 09:02:34;;;;;;;0.30;0.30;;;5.20;93.70;;;;;;5113682;28;20047;-76
2020/12/24 09:05:02;;;;;;;1.83;0.50;;;5.20;93.80;;;;;;5094999;28;20044;-76
2020/12/24 09:07:30;;;;;;;0.52;0.40;;;5.20;93.80;;;;;;5113029;28;20040;-76
2020/12/24 09:10:14;;;;;;;0.55;0.25;;;5.20;93.80;;;;;;5096941;28;20039;-76
2020/12/24 09:12:42;;;;;;;0.40;0.30;;;5.20;93.80;;;;;;5098439;28;20096;-76
2020/12/24 09:15:09;;;;;;;0.40;0.28;;;5.30;93.80;;;;;;5116878;28;20508;-76
2020/12/24 09:17:36;;;;;;;0.20;0.20;;;5.30;93.80;;;;;;5116365;28;20161;-76
2020/12/24 09:20:08;;;;;;;0.47;0.20;;;5.30;93.80;;;;;;5098772;28;20065;-76
2020/12/24 09:22:34;;;;;;;0.50;0.30;;;5.30;93.90;;;;;;5116533;28;20047;-76
2020/12/24 09:25:00;;;;;;;0.55;0.30;;;5.30;93.80;;;;;;5097962;28;20120;-76
2020/12/24 09:27:26;;;;;;;0.40;0.40;;;5.30;93.80;;;;;;5115725;28;20393;-75
2020/12/24 09:29:52;;;;;;;0.50;0.40;;;5.40;93.80;;;;;;5097602;28;20040;-75
2020/12/24 09:32:18;;;;;;;0.30;0.30;;;5.30;93.80;;;;;;5097342;28;20044;-75
2020/12/24 09:34:44;;;;;;;0.32;0.30;;;5.40;93.80;;;;;;5097409;28;20119;-75
2020/12/24 09:37:10;;;;;;;0.20;0.20;;;5.30;93.70;;;;;;5115449;28;20040;-76
2020/12/24 09:39:36;;;;;;;0.25;0.25;;;5.40;93.80;;;;;;5115500;28;20507;-75
2020/12/24 09:42:02;;;;;;;0.20;0.20;;;5.50;93.80;;;;;;5115587;28;20118;-75
2020/12/24 09:44:28;;;;;;;0.20;0.20;;;5.40;93.70;;;;;;5097539;28;20043;-76
2020/12/24 09:46:53;;;;;;;0.38;0.30;;;5.50;93.70;;;;;;5115703;28;20070;-76
2020/12/24 09:49:19;;;;;;;0.52;0.35;;;5.40;93.70;;;;;;5097481;28;20054;-76
2020/12/24 09:51:45;;;;;;;0.30;0.30;;;5.40;93.60;;;;;;5116224;28;20489;-76
2020/12/24 09:54:11;;;;;;;0.88;0.40;;;5.40;93.60;;;;;;5118884;28;20096;-76
2020/12/24 09:56:36;;;;;;;0.57;0.30;;;5.40;93.70;;;;;;5101039;28;20046;-76
2020/12/24 09:59:02;;;;;;;0.40;0.40;;;5.40;93.70;;;;;;5117317;28;20370;-76
2020/12/24 10:01:28;;;;;;;0.40;0.40;;;5.40;93.70;;;;;;5115033;28;20040;-76
2020/12/24 10:03:55;;;;;;;0.30;0.30;;;5.50;93.80;;;;;;5115444;28;20493;-76
2020/12/24 10:06:20;;;;;;;0.30;0.30;;;5.50;93.70;;;;;;5115036;28;20051;-76
2020/12/24 10:08:46;;;;;;;0.32;0.30;;;5.60;93.70;;;;;;5115255;28;20046;-76
2020/12/24 10:11:15;;;;;;;0.28;0.20;;;5.50;93.70;;;;;;5096683;28;20515;-75
2020/12/24 10:13:42;;;;;;;0.45;0.32;;;5.50;93.70;;;;;;5097079;28;20485;-76
2020/12/24 10:16:08;;;;;;;0.50;0.20;;;5.50;93.70;;;;;;5115224;28;20378;-75
2020/12/24 10:18:34;;;;;;;0.50;0.30;;;5.60;93.70;;;;;;5115018;28;20069;-75
2020/12/24 10:21:00;;;;;;;0.88;0.50;;;5.60;93.70;;;;;;5114523;28;20051;-75
2020/12/24 10:23:26;;;;;;;0.35;0.32;;;5.70;93.70;;;;;;5115357;28;20096;-75
2020/12/24 10:25:52;;;;;;;0.80;0.40;;;5.70;93.70;;;;;;5097643;28;20126;-77
2020/12/24 10:28:18;;;;;;;0.63;0.20;;;5.70;93.70;;;;;;5116242;28;20035;-76
2020/12/24 10:30:44;;;;;;;0.15;0.15;;;5.70;93.70;;;;;;5115793;28;20465;-75
2020/12/24 10:33:10;;;;;;;0.40;0.30;;;5.70;93.70;;;;;;5114642;28;20071;-75
2020/12/24 10:35:36;;;;;;;0.47;0.30;;;5.70;93.70;;;;;;5114766;28;20460;-75
2020/12/24 10:38:03;;;;;;;0.20;0.20;;;5.80;93.70;;;;;;5114837;28;20128;-75
2020/12/24 10:40:30;;;;;;;0.40;0.30;;;5.80;93.70;;;;;;5096289;28;20485;-75
2020/12/24 10:42:57;;;;;;;0.68;0.40;;;5.80;93.70;;;;;;5114790;28;20047;-76
2020/12/24 10:45:22;;;;;;;0.10;0.10;;;5.90;93.70;;;;;;5114552;28;20044;-76
2020/12/24 10:47:49;;;;;;;0.30;0.30;;;5.90;93.70;;;;;;5114527;28;20122;-76
2020/12/24 10:50:15;;;;;;;0.20;0.20;;;5.90;93.60;;;;;;5114399;28;20046;-76
2020/12/24 10:52:41;;;;;;;0.60;0.20;;;5.90;93.60;;;;;;5114217;28;20390;-75
2020/12/24 10:55:06;;;;;;;0.70;0.43;;;5.90;93.60;;;;;;5114439;28;20047;-76
2020/12/24 10:57:32;;;;;;;0.40;0.30;;;6.00;93.70;;;;;;5114189;28;20039;-76
2020/12/24 10:59:58;;;;;;;0.30;0.30;;;6.00;93.60;;;;;;5114128;28;20043;-76
2020/12/24 11:02:23;;;;;;;0.82;0.20;;;6.10;93.60;;;;;;5120873;28;20042;-74
2020/12/24 11:04:49;;;;;;;0.32;0.32;;;6.10;93.60;;;;;;5106771;28;20058;-76
2020/12/24 11:07:15;;;;;;;0.63;0.28;;;6.10;93.60;;;;;;5107617;28;20040;-75
2020/12/24 11:09:40;;;;;;;0.63;0.25;;;6.10;93.50;;;;;;5124094;28;20046;-75
2020/12/24 11:12:06;;;;;;;0.25;0.20;;;6.20;93.50;;;;;;5127199;28;20061;-75
2020/12/24 11:14:33;;;;;;;0.77;0.32;;;6.20;93.50;;;;;;5127696;28;20481;-76
2020/12/24 11:16:59;;;;;;;0.20;0.20;;;6.30;93.50;;;;;;5113204;28;20044;-76
2020/12/24 11:19:26;;;;;;;1.55;0.30;;;6.30;93.50;;;;;;5112542;28;20039;-75
2020/12/24 11:21:52;;;;;;;0.55;0.32;;;6.30;93.50;;;;;;5129634;28;20485;-75
2020/12/24 11:24:18;;;;;;;0.60;0.30;;;6.40;93.50;;;;;;5129699;28;20089;-74
2020/12/24 11:26:47;;;;;;;1.25;0.20;;;6.30;93.50;;;;;;5127383;28;20099;-74
2020/12/24 11:29:13;;;;;;;0.98;0.50;;;6.40;93.50;;;;;;5125807;28;20123;-75
2020/12/24 11:31:39;;;;;;;2.17;0.50;;;6.40;93.40;;;;;;5107206;28;20547;-74
2020/12/24 11:34:06;;;;;;;1.77;0.43;;;6.30;93.40;;;;;;5124360;28;20058;-75
2020/12/24 11:36:33;;;;;;;0.40;0.30;;;6.40;93.50;;;;;;5125987;28;20058;-75
2020/12/24 11:38:59;;;;;;;0.52;0.32;;;6.40;93.50;;;;;;5126080;28;20039;-75
2020/12/24 11:41:26;;;;;;;0.35;0.28;;;6.50;93.50;;;;;;5129207;28;20040;-75
2020/12/24 11:43:53;;;;;;;0.40;0.20;;;6.50;93.50;;;;;;5117046;28;20053;-75
2020/12/24 11:46:21;;;;;;;2.85;0.40;;;6.50;93.50;;;;;;5116498;28;20039;-75
2020/12/24 11:48:49;;;;;;;0.45;0.30;;;6.60;93.40;;;;;;5134406;28;20050;-76
2020/12/24 11:51:15;;;;;;;1.33;0.50;;;6.60;93.40;;;;;;5134347;28;20063;-75
2020/12/24 11:53:42;;;;;;;0.60;0.35;;;6.60;93.40;;;;;;5133264;28;20047;-75
2020/12/24 11:56:13;;;;;;;0.35;0.30;;;6.60;93.40;;;;;;5133686;28;20031;-76
2020/12/24 11:58:40;;;;;;;0.30;0.30;;;6.60;93.70;;;;;;5116165;28;20097;-76
2020/12/24 12:01:06;;;;;;;0.30;0.30;;;6.60;93.40;;;;;;5114373;28;20079;-75
2020/12/24 12:03:32;;;;;;;1.80;0.40;;;6.70;93.40;;;;;;5132844;28;20067;-75
2020/12/24 12:05:57;;;;;;;0.28;0.20;;;6.80;93.40;;;;;;5115085;28;20035;-75
2020/12/24 12:08:23;;;;;;;1.58;0.30;;;6.80;93.40;;;;;;5097599;28;20051;-75
2020/12/24 12:10:49;;;;;;;0.30;0.30;;;6.80;93.40;;;;;;5133788;28;20051;-75
2020/12/24 12:13:15;;;;;;;0.38;0.30;;;6.80;93.30;;;;;;5131172;28;20059;-76
2020/12/24 12:15:42;;;;;;;0.32;0.30;;;6.90;93.30;;;;;;5106559;28;20035;-76
2020/12/24 12:18:08;;;;;;;0.50;0.40;;;6.90;93.30;;;;;;5100451;28;20428;-76
2020/12/24 12:20:34;;;;;;;1.45;0.30;;;6.90;93.30;;;;;;5135370;28;20051;-76
2020/12/24 12:23:00;;;;;;;1.05;0.40;;;6.90;93.30;;;;;;5116327;28;20035;-76
2020/12/24 12:25:25;;;;;;;0.80;0.50;;;6.90;93.30;;;;;;5111891;28;20112;-75
2020/12/24 12:27:51;;;;;;;1.05;0.30;;;6.90;93.20;;;;;;5127509;28;20047;-75
2020/12/24 12:30:17;;;;;;;0.65;0.40;;;6.90;93.20;;;;;;5127581;28;20048;-75
2020/12/24 12:32:42;;;;;;;1.30;0.50;;;7.00;93.20;;;;;;5125887;28;20040;-75
2020/12/24 12:35:08;;;;;;;1.77;0.45;;;7.00;93.20;;;;;;5105686;28;20039;-75
2020/12/24 12:37:35;;;;;;;0.45;0.20;;;7.00;93.20;;;;;;5124302;28;20039;-74
2020/12/24 12:40:03;;;;;;;0.55;0.30;;;7.00;93.30;;;;;;5124713;28;20027;-74
2020/12/24 12:42:29;;;;;;;0.40;0.30;;;7.00;93.30;;;;;;5122611;28;20038;-75
2020/12/24 12:44:54;;;;;;;1.55;0.30;;;7.00;93.30;;;;;;5117557;28;20119;-74
2020/12/24 12:47:20;;;;;;;0.80;0.30;;;7.00;93.30;;;;;;5116869;28;20115;-75
2020/12/24 12:49:46;;;;;;;0.40;0.30;;;7.00;93.30;;;;;;5116870;28;20093;-74
2020/12/24 12:52:12;;;;;;;2.53;0.30;;;7.00;93.30;;;;;;5116623;28;20059;-74
2020/12/24 12:54:37;;;;;;;4.07;0.63;;;7.00;93.30;;;;;;5116817;28;20035;-75
2020/12/24 12:57:03;;;;;;;1.55;0.47;;;7.00;93.20;;;;;;5116824;28;20406;-75
2020/12/24 12:59:28;;;;;;;3.20;0.55;;;7.00;93.20;;;;;;5116369;28;20040;-74